createdAt,value
2017-11-29T00:01:40.007Z,69.54
2017-11-29T00:04:07.579Z,68.27
2017-11-29T00:06:35.312Z,69.00
2017-11-29T00:09:02.828Z,68.24
2017-11-29T00:11:30.364Z,67.97
2017-11-29T00:13:58.146Z,67.97
2017-11-29T00:16:25.663Z,68.05
2017-11-29T00:18:53.180Z,68.05
2017-11-29T00:21:20.888Z,68.21
2017-11-29T00:23:48.455Z,68.51
2017-11-29T00:26:16.012Z,68.78
2017-11-29T00:28:43.606Z,67.82
2017-11-29T00:31:11.132Z,68.55
2017-11-29T00:33:38.676Z,68.16
2017-11-29T00:36:06.536Z,67.56
2017-11-29T00:38:34.056Z,67.37
2017-11-29T00:41:01.583Z,67.78
2017-11-29T00:43:29.319Z,67.79
2017-11-29T00:45:56.837Z,67.65
2017-11-29T00:48:24.376Z,67.44
2017-11-29T00:50:52.117Z,68.54
2017-11-29T00:53:19.633Z,68.69
2017-11-29T00:55:47.172Z,69.01
2017-11-29T00:58:15.080Z,68.05
2017-11-29T01:00:42.604Z,69.95
2017-11-29T01:03:10.130Z,69.22
2017-11-29T01:05:37.876Z,69.39
2017-11-29T01:08:05.396Z,69.15
2017-11-29T01:10:32.986Z,68.62
2017-11-29T01:13:00.747Z,68.81
2017-11-29T01:15:28.256Z,68.47
2017-11-29T01:17:55.781Z,68.35
2017-11-29T01:20:23.620Z,68.32
2017-11-29T01:22:51.133Z,68.57
2017-11-29T01:25:18.661Z,69.01
2017-11-29T01:27:46.247Z,68.69
2017-11-29T01:30:13.769Z,68.72
2017-11-29T01:32:41.284Z,69.92
2017-11-29T01:35:09.073Z,69.83
2017-11-29T01:37:36.592Z,70.15
2017-11-29T01:40:04.116Z,69.67
2017-11-29T01:42:31.879Z,70.65
2017-11-29T01:44:59.451Z,70.36
2017-11-29T01:47:26.996Z,71.48
2017-11-29T01:49:54.557Z,71.51
2017-11-29T01:52:22.114Z,71.23
2017-11-29T01:54:50.596Z,71.61
2017-11-29T01:57:18.154Z,71.93
2017-11-29T01:59:45.718Z,71.15
2017-11-29T02:02:13.485Z,71.05
2017-11-29T02:04:41.445Z,71.35
2017-11-29T02:07:08.969Z,71.00
2017-11-29T02:09:36.493Z,70.85
2017-11-29T02:12:04.226Z,72.15
2017-11-29T02:14:31.786Z,71.47
2017-11-29T02:16:59.308Z,71.72
2017-11-29T02:19:27.097Z,71.66
2017-11-29T02:21:54.626Z,71.17
2017-11-29T02:24:22.165Z,70.96
2017-11-29T02:26:49.873Z,71.16
2017-11-29T02:29:17.450Z,70.82
2017-11-29T02:31:45.046Z,70.69
2017-11-29T02:34:12.766Z,70.59
2017-11-29T02:36:40.293Z,70.76
2017-11-29T02:39:07.820Z,70.95
2017-11-29T02:41:47.295Z,71.43
2017-11-29T02:44:14.818Z,71.23
2017-11-29T02:46:42.359Z,71.32
2017-11-29T02:49:10.211Z,71.15
2017-11-29T02:51:37.766Z,71.68
2017-11-29T02:54:05.305Z,72.38
2017-11-29T02:56:33.076Z,72.25
2017-11-29T02:59:00.588Z,71.51
2017-11-29T03:01:28.116Z,71.47
2017-11-29T03:03:55.849Z,71.02
2017-11-29T03:06:23.370Z,70.76
2017-11-29T03:08:50.884Z,70.74
2017-11-29T03:11:18.854Z,70.88
2017-11-29T03:13:46.431Z,71.15
2017-11-29T03:16:13.972Z,70.87
2017-11-29T03:18:41.545Z,70.79
2017-11-29T03:21:09.092Z,69.73
2017-11-29T03:23:36.656Z,69.49
2017-11-29T03:26:04.353Z,69.31
2017-11-29T03:28:31.872Z,69.52
2017-11-29T03:30:59.432Z,69.22
2017-11-29T03:33:26.981Z,69.21
2017-11-29T03:35:54.592Z,69.14
2017-11-29T03:38:22.117Z,68.91
2017-11-29T03:40:49.901Z,68.88
2017-11-29T03:43:17.416Z,69.31
2017-11-29T03:45:44.938Z,69.24
2017-11-29T03:48:12.632Z,69.58
2017-11-29T03:50:40.147Z,69.85
2017-11-29T03:53:07.673Z,70.05
2017-11-29T03:55:35.438Z,69.34
2017-11-29T03:58:02.972Z,69.74
2017-11-29T04:00:30.480Z,69.68
2017-11-29T04:02:58.187Z,70.41
2017-11-29T04:05:25.701Z,69.84
2017-11-29T04:07:53.216Z,70.30
2017-11-29T04:10:20.923Z,69.76
2017-11-29T04:12:48.440Z,69.46
2017-11-29T04:15:15.954Z,69.65
2017-11-29T04:17:43.648Z,69.44
2017-11-29T04:20:11.177Z,68.99
2017-11-29T04:22:38.704Z,68.86
2017-11-29T04:25:06.448Z,68.76
2017-11-29T04:27:34.056Z,68.22
2017-11-29T04:30:01.578Z,67.52
2017-11-29T04:32:29.280Z,67.77
2017-11-29T04:34:56.800Z,67.97
2017-11-29T04:37:24.345Z,67.80
2017-11-29T04:39:51.910Z,67.54
2017-11-29T04:42:19.462Z,67.10
2017-11-29T04:44:46.981Z,66.84
2017-11-29T04:47:14.539Z,65.99
2017-11-29T04:49:42.056Z,65.41
2017-11-29T04:52:09.596Z,65.21
2017-11-29T04:54:37.361Z,64.76
2017-11-29T04:57:04.919Z,65.34
2017-11-29T04:59:32.484Z,64.89
2017-11-29T05:02:00.037Z,65.89
2017-11-29T05:04:27.584Z,66.25
2017-11-29T05:06:55.093Z,65.63
2017-11-29T05:09:22.820Z,65.97
2017-11-29T05:11:50.393Z,66.46
2017-11-29T05:14:17.941Z,67.12
2017-11-29T05:16:45.504Z,67.63
2017-11-29T05:19:13.076Z,68.03
2017-11-29T05:21:40.613Z,68.20
2017-11-29T05:24:08.173Z,68.06
2017-11-29T05:26:35.732Z,68.59
2017-11-29T05:29:03.260Z,68.16
2017-11-29T05:31:31.135Z,68.43
2017-11-29T05:33:58.671Z,68.35
2017-11-29T05:36:27.210Z,68.10
2017-11-29T05:38:54.876Z,68.50
2017-11-29T05:41:22.397Z,68.10
2017-11-29T05:43:49.913Z,67.56
2017-11-29T05:46:17.730Z,67.46
2017-11-29T05:48:45.249Z,68.57
2017-11-29T05:51:12.765Z,68.01
2017-11-29T05:53:40.620Z,67.06
2017-11-29T05:56:08.182Z,66.93
2017-11-29T05:58:35.698Z,66.43
2017-11-29T06:01:03.253Z,66.63
2017-11-29T06:03:30.771Z,67.05
2017-11-29T06:05:58.292Z,66.26
2017-11-29T06:08:26.079Z,66.08
2017-11-29T06:10:53.638Z,65.95
2017-11-29T06:13:21.300Z,65.66
2017-11-29T06:15:49.081Z,65.77
2017-11-29T06:18:16.620Z,65.95
2017-11-29T06:20:44.283Z,65.16
2017-11-29T06:23:12.957Z,65.47
2017-11-29T06:25:40.475Z,65.17
2017-11-29T06:28:08.906Z,65.19
2017-11-29T06:30:36.499Z,65.74
2017-11-29T06:33:04.024Z,66.02
2017-11-29T06:35:31.584Z,65.43
2017-11-29T06:37:59.428Z,65.16
2017-11-29T06:40:26.935Z,65.67
2017-11-29T06:42:54.452Z,65.76
2017-11-29T06:45:22.163Z,65.27
2017-11-29T06:47:49.680Z,65.78
2017-11-29T06:50:17.199Z,65.39
2017-11-29T06:52:45.113Z,65.15
2017-11-29T06:55:12.650Z,64.86
2017-11-29T06:57:40.168Z,65.41
2017-11-29T07:00:08.019Z,64.77
2017-11-29T07:02:35.552Z,64.54
2017-11-29T07:05:03.116Z,65.39
2017-11-29T07:07:30.857Z,65.25
2017-11-29T07:09:58.381Z,65.30
2017-11-29T07:12:25.935Z,64.49
2017-11-29T07:14:53.509Z,65.13
2017-11-29T07:17:21.934Z,64.88
2017-11-29T07:19:50.419Z,65.73
2017-11-29T07:22:18.176Z,65.36
2017-11-29T07:24:46.019Z,65.66
2017-11-29T07:27:14.319Z,65.62
2017-11-29T07:29:43.214Z,65.49
2017-11-29T07:32:11.515Z,65.38
2017-11-29T07:34:39.291Z,65.55
2017-11-29T07:37:07.124Z,64.98
2017-11-29T07:39:34.873Z,65.24
2017-11-29T07:42:04.424Z,65.18
2017-11-29T07:44:32.432Z,64.97
2017-11-29T07:46:59.996Z,65.63
2017-11-29T07:49:27.685Z,65.75
2017-11-29T07:51:55.748Z,64.96
2017-11-29T07:54:23.307Z,65.42
2017-11-29T07:56:50.852Z,65.40
2017-11-29T07:59:18.551Z,65.94
2017-11-29T08:01:46.237Z,65.34
2017-11-29T08:04:16.486Z,64.84
2017-11-29T08:06:44.684Z,65.55
2017-11-29T08:09:12.844Z,65.21
2017-11-29T08:11:40.484Z,64.47
2017-11-29T08:14:08.492Z,64.35
2017-11-29T08:16:36.150Z,63.43
2017-11-29T08:19:03.711Z,63.59
2017-11-29T08:21:32.191Z,61.83
2017-11-29T08:23:59.860Z,61.49
2017-11-29T08:26:27.615Z,61.55
2017-11-29T08:28:56.159Z,61.78
2017-11-29T08:31:25.499Z,60.82
2017-11-29T08:33:53.169Z,60.83
2017-11-29T08:36:20.870Z,61.19
2017-11-29T08:38:48.385Z,61.79
2017-11-29T08:41:15.908Z,62.12
2017-11-29T08:43:43.584Z,62.00
2017-11-29T08:46:11.098Z,62.49
2017-11-29T08:48:38.724Z,61.63
2017-11-29T08:51:06.441Z,60.57
2017-11-29T08:53:33.956Z,59.39
2017-11-29T08:56:01.477Z,59.81
2017-11-29T08:58:29.264Z,60.46
2017-11-29T09:00:56.784Z,61.96
2017-11-29T09:03:24.382Z,61.10
2017-11-29T09:05:52.158Z,60.85
2017-11-29T09:08:19.706Z,61.85
2017-11-29T09:10:47.265Z,60.48
2017-11-29T09:13:15.008Z,60.72
2017-11-29T09:15:42.523Z,59.25
2017-11-29T09:18:10.039Z,59.09
2017-11-29T09:20:37.830Z,59.24
2017-11-29T09:23:05.399Z,58.63
2017-11-29T09:25:33.111Z,58.47
2017-11-29T09:28:00.982Z,58.86
2017-11-29T09:30:28.509Z,59.84
2017-11-29T09:32:56.062Z,59.77
2017-11-29T09:35:23.883Z,59.39
2017-11-29T09:37:51.420Z,58.34
2017-11-29T09:40:18.929Z,58.17
2017-11-29T09:42:46.660Z,58.88
2017-11-29T09:45:14.196Z,59.94
2017-11-29T09:47:41.712Z,59.47
2017-11-29T09:50:09.420Z,58.48
2017-11-29T09:52:36.998Z,58.42
2017-11-29T09:55:04.521Z,57.85
2017-11-29T09:57:32.100Z,58.17
2017-11-29T09:59:59.632Z,56.94
2017-11-29T10:02:27.319Z,56.61
2017-11-29T10:04:55.188Z,57.33
2017-11-29T10:07:22.845Z,57.59
2017-11-29T10:09:50.376Z,57.29
2017-11-29T10:12:18.060Z,57.90
2017-11-29T10:14:45.601Z,57.04
2017-11-29T10:17:13.129Z,58.17
2017-11-29T10:19:41.052Z,57.80
2017-11-29T10:22:08.628Z,58.59
2017-11-29T10:24:36.145Z,58.07
2017-11-29T10:27:03.928Z,58.24
2017-11-29T10:29:31.444Z,58.56
2017-11-29T10:31:58.970Z,58.28
2017-11-29T10:34:26.712Z,58.06
2017-11-29T10:36:54.241Z,57.61
2017-11-29T10:39:21.851Z,56.93
2017-11-29T10:41:49.429Z,57.06
2017-11-29T10:44:17.172Z,57.03
2017-11-29T10:46:44.680Z,57.15
2017-11-29T10:49:12.576Z,57.19
2017-11-29T10:51:40.088Z,57.08
2017-11-29T10:54:07.632Z,56.18
2017-11-29T10:56:35.278Z,55.85
2017-11-29T10:59:02.937Z,55.72
2017-11-29T11:01:30.494Z,54.95
2017-11-29T11:03:58.260Z,55.21
2017-11-29T11:06:25.817Z,53.68
2017-11-29T11:08:53.380Z,53.23
2017-11-29T11:11:21.119Z,53.35
2017-11-29T11:13:48.781Z,51.72
2017-11-29T11:16:16.296Z,51.80
2017-11-29T11:18:43.999Z,50.81
2017-11-29T11:21:11.517Z,51.52
2017-11-29T11:23:39.040Z,51.24
2017-11-29T11:26:06.832Z,51.17
2017-11-29T11:28:34.369Z,51.18
2017-11-29T11:31:01.921Z,51.75
2017-11-29T11:33:29.491Z,51.00
2017-11-29T11:35:57.008Z,51.43
2017-11-29T11:38:24.582Z,51.21
2017-11-29T11:40:52.291Z,50.97
2017-11-29T11:43:19.842Z,50.65
2017-11-29T11:45:47.488Z,50.86
2017-11-29T11:48:15.348Z,51.35
2017-11-29T11:50:42.867Z,51.42
2017-11-29T11:53:10.381Z,51.69
2017-11-29T11:55:38.112Z,51.96
2017-11-29T11:58:05.675Z,52.92
2017-11-29T12:00:33.194Z,52.34
2017-11-29T12:03:00.892Z,52.02
2017-11-29T12:05:28.481Z,53.35
2017-11-29T12:07:55.988Z,54.54
2017-11-29T12:10:23.772Z,54.55
2017-11-29T12:12:51.297Z,54.06
2017-11-29T12:15:18.832Z,54.44
2017-11-29T12:17:46.548Z,54.10
2017-11-29T12:20:14.081Z,53.61
2017-11-29T12:22:41.649Z,54.39
2017-11-29T12:25:09.432Z,53.34
2017-11-29T12:27:36.968Z,53.32
2017-11-29T12:30:04.655Z,52.67
2017-11-29T12:32:32.516Z,52.63
2017-11-29T12:35:00.041Z,53.60
2017-11-29T12:37:27.557Z,53.75
2017-11-29T12:39:55.300Z,54.32
2017-11-29T12:42:22.878Z,54.90
2017-11-29T12:44:50.552Z,54.98
2017-11-29T12:47:18.505Z,55.13
2017-11-29T12:49:58.049Z,55.01
2017-11-29T12:52:26.014Z,55.77
2017-11-29T12:54:53.574Z,56.92
2017-11-29T12:57:21.081Z,56.47
2017-11-29T12:59:48.971Z,56.80
2017-11-29T13:02:16.484Z,56.82
2017-11-29T13:04:43.999Z,56.82
2017-11-29T13:07:11.755Z,56.66
2017-11-29T13:09:39.457Z,56.87
2017-11-29T13:12:07.000Z,57.03
2017-11-29T13:14:34.694Z,57.03
2017-11-29T13:17:02.213Z,57.46
2017-11-29T13:19:29.781Z,57.52
2017-11-29T13:21:57.551Z,57.03
2017-11-29T13:24:25.184Z,57.20
2017-11-29T13:26:52.748Z,56.74
2017-11-29T13:29:20.358Z,56.38
2017-11-29T13:31:47.884Z,55.97
2017-11-29T13:34:16.181Z,55.87
2017-11-29T13:36:43.920Z,55.56
2017-11-29T13:39:11.431Z,55.27
2017-11-29T13:41:38.956Z,55.14
2017-11-29T13:44:06.915Z,54.94
2017-11-29T13:46:34.465Z,54.96
2017-11-29T13:49:02.025Z,54.62
2017-11-29T13:51:29.778Z,54.81
2017-11-29T13:53:57.348Z,54.95
2017-11-29T13:56:25.044Z,55.18
2017-11-29T13:58:52.854Z,55.06
2017-11-29T14:01:20.386Z,54.53
2017-11-29T14:03:47.917Z,54.25
2017-11-29T14:06:15.736Z,54.51
2017-11-29T14:08:43.272Z,53.89
2017-11-29T14:11:10.793Z,53.31
2017-11-29T14:13:38.375Z,52.81
2017-11-29T14:16:05.918Z,53.41
2017-11-29T14:18:33.451Z,53.03
2017-11-29T14:21:01.310Z,52.95
2017-11-29T14:23:28.829Z,52.17
2017-11-29T14:25:56.435Z,52.08
2017-11-29T14:28:24.179Z,51.36
2017-11-29T14:30:51.875Z,50.70
2017-11-29T14:33:19.454Z,51.48
2017-11-29T14:35:47.286Z,51.71
2017-11-29T14:38:14.826Z,52.18
2017-11-29T14:40:42.404Z,52.92
2017-11-29T14:43:09.993Z,53.48
2017-11-29T14:45:37.522Z,53.71
2017-11-29T14:48:05.202Z,53.85
2017-11-29T14:50:33.254Z,53.27
2017-11-29T14:53:00.947Z,53.53
2017-11-29T14:55:29.705Z,53.07
2017-11-29T14:57:57.503Z,53.91
2017-11-29T15:00:25.240Z,53.87
2017-11-29T15:02:52.802Z,54.11
2017-11-29T15:05:20.665Z,53.93
2017-11-29T15:07:48.318Z,54.20
2017-11-29T15:10:15.936Z,54.43
2017-11-29T15:12:43.641Z,54.21
2017-11-29T15:15:11.154Z,54.70
2017-11-29T15:17:38.681Z,54.95
2017-11-29T15:20:06.320Z,55.17
2017-11-29T15:22:33.986Z,55.42
2017-11-29T15:25:03.818Z,55.82
2017-11-29T15:27:31.981Z,56.17
2017-11-29T15:30:00.244Z,56.41
2017-11-29T15:32:28.106Z,56.22
2017-11-29T15:34:56.109Z,56.10
2017-11-29T15:37:23.651Z,56.07
2017-11-29T15:39:51.182Z,55.96
2017-11-29T15:42:18.884Z,55.73
2017-11-29T15:44:46.556Z,55.89
2017-11-29T15:47:14.180Z,56.19
2017-11-29T15:49:41.841Z,56.59
2017-11-29T15:52:09.440Z,56.43
2017-11-29T15:54:36.992Z,56.63
2017-11-29T15:57:04.703Z,57.24
2017-11-29T15:59:32.235Z,57.92
2017-11-29T16:01:59.758Z,58.00
2017-11-29T16:04:27.341Z,58.15
2017-11-29T16:06:54.929Z,58.96
2017-11-29T16:09:22.453Z,58.68
2017-11-29T16:11:50.177Z,58.87
2017-11-29T16:14:17.795Z,59.27
2017-11-29T16:16:45.372Z,59.54
2017-11-29T16:19:13.167Z,60.01
2017-11-29T16:21:40.721Z,59.83
2017-11-29T16:24:08.269Z,59.71
2017-11-29T16:26:35.903Z,60.78
2017-11-29T16:29:03.457Z,60.17
2017-11-29T16:31:30.997Z,60.20
2017-11-29T16:33:58.904Z,60.40
2017-11-29T16:36:26.432Z,60.63
2017-11-29T16:38:53.975Z,60.75
2017-11-29T16:41:21.706Z,61.01
2017-11-29T16:43:49.373Z,60.92
2017-11-29T16:46:16.934Z,61.08
2017-11-29T16:48:44.746Z,61.16
2017-11-29T16:51:12.454Z,61.03
2017-11-29T16:53:40.730Z,60.83
2017-11-29T16:56:08.796Z,60.43
2017-11-29T16:58:36.670Z,60.46
2017-11-29T17:01:04.424Z,61.07
2017-11-29T17:03:32.299Z,61.44
2017-11-29T17:05:59.878Z,61.92
2017-11-29T17:08:27.739Z,61.95
2017-11-29T17:10:56.006Z,62.18
2017-11-29T17:13:23.865Z,62.59
2017-11-29T17:15:51.639Z,62.60
2017-11-29T17:18:19.719Z,62.60
2017-11-29T17:20:48.144Z,62.60
2017-11-29T17:23:15.974Z,62.57
2017-11-29T17:25:43.812Z,62.63
2017-11-29T17:28:11.575Z,62.59
2017-11-29T17:30:39.544Z,62.17
2017-11-29T17:33:07.438Z,62.10
2017-11-29T17:35:35.379Z,62.07
2017-11-29T17:38:03.142Z,61.68
2017-11-29T17:40:31.128Z,61.59
2017-11-29T17:42:59.184Z,61.75
2017-11-29T17:45:26.980Z,61.54
2017-11-29T17:47:54.852Z,61.71
2017-11-29T17:50:23.090Z,62.05
2017-11-29T17:52:51.058Z,61.84
2017-11-29T17:55:19.436Z,63.48
2017-11-29T17:57:48.020Z,63.19
2017-11-29T18:00:15.721Z,62.73
2017-11-29T18:02:43.962Z,62.01
2017-11-29T18:05:11.724Z,62.28
2017-11-29T18:07:39.908Z,62.73
2017-11-29T18:10:08.177Z,63.01
2017-11-29T18:12:36.037Z,63.68
2017-11-29T18:15:04.518Z,63.08
2017-11-29T18:17:32.386Z,63.26
2017-11-29T18:20:00.681Z,62.57
2017-11-29T18:22:28.422Z,62.92
2017-11-29T18:24:56.564Z,62.75
2017-11-29T18:27:24.383Z,63.08
2017-11-29T18:29:52.239Z,63.99
2017-11-29T18:32:20.399Z,63.93
2017-11-29T18:34:48.019Z,63.92
2017-11-29T18:37:15.826Z,64.71
2017-11-29T18:39:43.841Z,64.30
2017-11-29T18:42:11.758Z,64.72
2017-11-29T18:44:39.644Z,65.10
2017-11-29T18:47:07.803Z,66.07
2017-11-29T18:49:35.556Z,66.30
2017-11-29T18:52:03.273Z,65.85
2017-11-29T18:54:31.371Z,65.57
2017-11-29T18:56:59.068Z,65.66
2017-11-29T18:59:26.723Z,66.01
2017-11-29T19:01:55.111Z,66.08
2017-11-29T19:04:22.867Z,66.02
2017-11-29T19:06:50.632Z,65.88
2017-11-29T19:09:18.466Z,65.88
2017-11-29T19:11:46.076Z,66.01
2017-11-29T19:14:13.818Z,65.71
2017-11-29T19:16:41.487Z,65.49
2017-11-29T19:19:09.143Z,65.32
2017-11-29T19:21:36.920Z,65.28
2017-11-29T19:24:04.857Z,64.86
2017-11-29T19:26:32.442Z,65.10
2017-11-29T19:29:00.301Z,65.67
2017-11-29T19:31:28.063Z,65.63
2017-11-29T19:33:55.687Z,65.59
2017-11-29T19:36:23.321Z,66.15
2017-11-29T19:38:51.039Z,66.51
2017-11-29T19:41:18.817Z,66.09
2017-11-29T19:43:46.680Z,65.89
2017-11-29T19:46:14.656Z,65.80
2017-11-29T19:48:42.620Z,65.92
2017-11-29T19:51:10.484Z,65.81
2017-11-29T19:53:38.544Z,65.17
2017-11-29T19:56:06.539Z,64.80
2017-11-29T19:58:34.445Z,64.98
2017-11-29T20:01:02.611Z,64.49
2017-11-29T20:03:30.502Z,64.32
2017-11-29T20:05:58.910Z,64.02
2017-11-29T20:08:26.984Z,64.01
2017-11-29T20:10:54.859Z,63.96
2017-11-29T20:13:22.714Z,63.73
2017-11-29T20:15:50.787Z,64.16
2017-11-29T20:18:18.651Z,64.18
2017-11-29T20:20:46.428Z,64.22
2017-11-29T20:23:14.390Z,64.14
2017-11-29T20:25:42.202Z,64.35
2017-11-29T20:28:10.141Z,64.18
2017-11-29T20:30:38.195Z,64.37
2017-11-29T20:33:05.964Z,64.19
2017-11-29T20:35:33.943Z,64.28
2017-11-29T20:38:01.792Z,64.28
2017-11-29T20:40:29.572Z,64.54
2017-11-29T20:42:57.436Z,64.32
2017-11-29T20:45:25.796Z,64.64
2017-11-29T20:47:53.564Z,64.71
2017-11-29T20:50:21.426Z,64.95
2017-11-29T20:52:56.268Z,65.22
2017-11-29T20:55:24.007Z,65.45
2017-11-29T20:57:51.733Z,65.33
2017-11-29T21:00:19.872Z,66.39
2017-11-29T21:02:47.823Z,66.42
2017-11-29T21:05:15.656Z,66.51
2017-11-29T21:07:43.777Z,67.02
2017-11-29T21:10:12.452Z,66.51
2017-11-29T21:12:40.415Z,66.75
2017-11-29T21:15:08.813Z,67.34
2017-11-29T21:17:37.276Z,68.02
2017-11-29T21:20:05.141Z,67.71
2017-11-29T21:22:33.851Z,67.93
2017-11-29T21:25:01.648Z,67.44
2017-11-29T21:27:29.566Z,66.97
2017-11-29T21:29:57.830Z,67.05
2017-11-29T21:32:26.112Z,66.94
2017-11-29T21:34:53.785Z,66.93
2017-11-29T21:37:21.988Z,66.97
2017-11-29T21:39:49.704Z,67.13
2017-11-29T21:42:17.494Z,66.73
2017-11-29T21:44:45.338Z,66.73
2017-11-29T21:47:13.206Z,66.67
2017-11-29T21:49:41.077Z,66.78
2017-11-29T21:52:08.948Z,67.10
2017-11-29T21:54:36.585Z,67.15
2017-11-29T21:57:04.217Z,67.79
2017-11-29T21:59:32.130Z,68.08
2017-11-29T22:01:59.791Z,67.31
2017-11-29T22:04:27.370Z,67.28
2017-11-29T22:06:55.421Z,67.67
2017-11-29T22:09:22.979Z,68.41
2017-11-29T22:11:50.962Z,67.74
2017-11-29T22:14:18.692Z,68.05
2017-11-29T22:16:46.208Z,68.10
2017-11-29T22:19:13.733Z,68.38
2017-11-29T22:21:41.576Z,68.26
2017-11-29T22:24:09.099Z,68.05
2017-11-29T22:26:36.710Z,67.76
2017-11-29T22:29:04.476Z,67.58
2017-11-29T22:31:32.035Z,67.10
2017-11-29T22:33:59.612Z,67.12
2017-11-29T22:36:27.408Z,67.09
2017-11-29T22:38:55.841Z,66.71
2017-11-29T22:41:23.418Z,66.74
2017-11-29T22:43:51.470Z,66.65
2017-11-29T22:46:19.335Z,66.53
2017-11-29T22:48:46.952Z,66.67
2017-11-29T22:51:14.965Z,66.67
2017-11-29T22:53:42.530Z,66.09
2017-11-29T22:56:10.041Z,66.24
2017-11-29T22:58:37.758Z,66.41
2017-11-29T23:01:05.287Z,66.33
2017-11-29T23:03:32.813Z,66.23
2017-11-29T23:06:00.611Z,66.21
2017-11-29T23:10:54.956Z,65.52
2017-11-29T23:13:22.609Z,65.42
2017-11-29T23:15:50.170Z,65.03
2017-11-29T23:18:17.697Z,65.48
2017-11-29T23:20:45.279Z,65.36
2017-11-29T23:23:12.825Z,66.05
2017-11-29T23:25:40.349Z,66.12
2017-11-29T23:28:07.947Z,65.62
2017-11-29T23:30:35.502Z,65.66
2017-11-29T23:33:03.045Z,66.53
2017-11-29T23:35:30.706Z,66.08
2017-11-29T23:37:58.236Z,65.61
2017-11-29T23:40:25.760Z,64.73
2017-11-29T23:42:53.503Z,64.20
2017-11-29T23:45:21.061Z,63.98
2017-11-29T23:47:48.622Z,63.68
2017-11-29T23:50:16.507Z,64.36
2017-11-29T23:52:44.024Z,63.63
2017-11-29T23:55:11.543Z,63.19
2017-11-29T23:57:39.425Z,62.81
